CCGS Terry Fox — CGTF — position and weather

sailwx.info

Track history (hours):
 
Tides and Currents Weather Stations Pressure Air Temp Water Temp Dewpoint Dewpoint Depression Visibility Wind Speed Wind Dir Waves Ship Positions

Oceanographic research ship CCGS Terry Fox (Canada)

Detailed information on ship capabilities available from ARCUS's ALIAS (Arctic Logistics Information and Support) project.

Last reported at 2017-Apr-29 11:00 UTC. Time now 2017-Apr-29 11:32 UTC.
Position N 51°24' W 057°06'.

Length 88 m; beam 17.82 m; draft 2 m.

Type: SAR. MMSI: 316122000.

Wind from 250 at 8 knots

Barometer 1003.9 mb
Air temperature -0.3 ° C
Dewpoint -0.3 ° C

Date/timePositionNaut miles runAvg speedWind from/ knotsBaromVisibWave heightAir tempDewpointWater temp
2017-Apr-29 11:00N 51°24' W 057°06'0 0.0 250 / 81003.9 -0.3-0.3
2017-Apr-29 10:00N 51°24' W 057°06'0 0.0 240 / 71003.8 -0.3-0.4
2017-Apr-29 09:00N 51°24' W 057°06'7 7.1 220 / 61004.4 -0.1-0.1
2017-Apr-29 08:00N 51°18' W 057°12'4 3.8 260 / 111005.1 -0.0-0.0
2017-Apr-29 07:00N 51°18' W 057°18'0 0.0 260 / 11006.1 0.4 0.3
2017-Apr-29 06:00N 51°18' W 057°18'0 0.0 100 / 11007.0 -0.1-0.1
2017-Apr-29 05:00N 51°18' W 057°18'4 3.8 100 / 11008.0 -0.6-0.6
2017-Apr-29 04:00N 51°18' W 057°12'0 0.0 090 / 11009.1 -0.2-0.2
2017-Apr-29 03:00N 51°18' W 057°12'4 3.8 060 / 41010.2 -0.7-0.7
2017-Apr-29 02:00N 51°18' W 057°06'0 0.0 060 / 51011.6 -0.7-0.7
2017-Apr-29 01:00N 51°18' W 057°06'0 0.0 050 / 51012.7 -0.7-0.7
2017-Apr-29 00:00N 51°18' W 057°06'4 3.8 050 / 51014.2 -0.6-0.6
2017-Apr-28 23:00N 51°18' W 057°00'4 3.8 050 / 71015.4 -0.9-1.0
2017-Apr-28 22:00N 51°18' W 056°54'0 0.0 050 / 71016.5 -0.8-0.9
2017-Apr-28 21:00N 51°18' W 056°54'0 0.0 050 / 91017.9 -0.8-0.8
2017-Apr-28 20:00N 51°18' W 056°54'0 0.0 060 / 111019.0 -0.8-0.8
2017-Apr-28 19:00N 51°18' W 056°54'0 0.0 070 / 151020.1 -0.4-0.5
2017-Apr-28 18:00N 51°18' W 056°54'10 9.6 060 / 91020.5 -0.2-0.2
2017-Apr-28 17:00N 51°24' W 057°06'0 0.0 070 / 191021.8 -1.4-1.5
2017-Apr-28 16:00N 51°24' W 057°06'0 0.0 070 / 201022.5 -1.7-1.8
2017-Apr-28 15:00N 51°24' W 057°06'0 0.0 080 / 171024.0 -2.0-2.1
2017-Apr-28 14:00N 51°24' W 057°06'0 0.0 070 / 141024.8 0.7 0.6
2017-Apr-28 13:00N 51°24' W 057°06'0 0.0 070 / 161025.1 -2.3-2.4
2017-Apr-28 12:00N 51°24' W 057°06'0 0.0 070 / 111025.4 -0.3-0.4
2017-Apr-28 11:00N 51°24' W 057°06'0 0.0 050 / 41026.2 -0.4-0.5
2017-Apr-28 10:00N 51°24' W 057°06'7 7.1 070 / 121025.9 -1.7-1.8
2017-Apr-28 09:00N 51°18' W 057°00'0 0.0 060 / 111025.6 -3.3-3.4
2017-Apr-28 08:00N 51°18' W 057°00'7 7.1 060 / 171025.8 -3.5-3.7
2017-Apr-28 07:00N 51°24' W 056°54'0 0.0 060 / 101026.0 -0.1-0.4
2017-Apr-28 06:00N 51°24' W 056°54'0 0.0 050 / 131027.0 -2.0-2.2
2017-Apr-28 05:00N 51°24' W 056°54'6 6.0 050 / 101027.4 -1.4-1.6
2017-Apr-28 04:00N 51°18' W 056°54'0 0.0 080 / 121028.0 -2.6-2.7
2017-Apr-28 03:00N 51°18' W 056°54'10 9.6 070 / 191029.1 -4.5-4.6
2017-Apr-28 02:00N 51°24' W 056°42'10 9.6 080 / 161030.2 -4.2-4.4
2017-Apr-28 01:00N 51°30' W 056°30'1312.7 090 / 111030.9 -4.2-4.9
2017-Apr-28 00:00N 51°36' W 056°12'7 7.5 080 / 91031.2 -4.3-4.9
2017-Apr-27 23:00N 51°36' W 056°00'13 6.3 080 / 81031.6 -4.7-5.6
2017-Apr-27 21:00N 51°42' W 055°42'7 7.4 130 / 71031.6 -5.1-6.2
2017-Apr-27 20:00N 51°42' W 055°30'7 7.4 090 / 51031.6 -5.8-6.7
2017-Apr-27 19:00N 51°42' W 055°42'1312.7 100 / 61031.8 -5.7-6.9
2017-Apr-27 18:00N 51°36' W 056°00'1312.7 080 / 81032.5 -5.6-6.8
2017-Apr-27 17:00N 51°30' W 056°18'1616.1 080 / 101031.6 -5.0-6.4
2017-Apr-27 16:00N 51°24' W 056°42'1414.2 090 / 141031.4 -4.0-4.7
2017-Apr-27 15:00N 51°12' W 056°54'1414.2 070 / 131030.7 -3.3-3.7
2017-Apr-27 14:00N 51°24' W 057°06'0 0.0 070 / 141030.8 -3.8-4.0
2017-Apr-27 13:00N 51°24' W 057°06'0 0.0 070 / 81030.7 4.4 1.3
2017-Apr-27 12:00N 51°24' W 057°06'10 9.6 060 / 141029.5 -2.2-4.1
2017-Apr-27 11:00N 51°18' W 056°54'0 0.0 080 / 41028.9 -0.8-1.6
2017-Apr-27 10:00N 51°18' W 056°54'7 7.1 080 / 111027.8 -2.3-2.4
2017-Apr-27 09:00N 51°12' W 057°00'0 0.0 030 / 71026.8 -0.3-0.4
2017-Apr-27 08:00N 51°12' W 057°00'0 0.0 030 / 151025.0 -1.1-1.2
2017-Apr-27 07:00N 51°12' W 057°00'0 0.0 050 / 141022.7 1.5 1.4
2017-Apr-27 06:00N 51°12' W 057°00'4 3.8 320 / 41021.7 1.6 1.5
2017-Apr-27 05:00N 51°12' W 057°06'0 0.0 280 / 51020.6 0.9 0.8
2017-Apr-27 04:00N 51°12' W 057°06'0 0.0 260 / 61020.3 2.2 2.1
2017-Apr-27 03:00N 51°12' W 057°06'0 0.0 230 / 81020.0 2.3 2.2
2017-Apr-27 02:00N 51°12' W 057°06'0 0.0 230 / 121020.2 1.6 1.5
2017-Apr-27 01:00N 51°12' W 057°06'0 0.0 220 / 91020.4 3.4 3.3
2017-Apr-27 00:00N 51°12' W 057°06'0 0.0 220 / 91020.5 2.9 2.8
2017-Apr-26 23:00N 51°12' W 057°06'0 0.0 210 / 101020.9 2.6 2.5
2017-Apr-26 22:00N 51°12' W 057°06'1111.3 250 / 181020.7 0.9 0.8
2017-Apr-26 21:00N 51°12' W 056°48'10 9.6 220 / 31022.5 1.2 1.0
2017-Apr-26 20:00N 51°18' W 057°00'7 7.1 250 / 111022.7 0.3 0.2
2017-Apr-26 19:00N 51°24' W 057°06'0 0.0 240 / 81023.8 1.0 0.6
2017-Apr-26 18:00N 51°24' W 057°06'0 0.0 230 / 71023.8 2.7 0.7
2017-Apr-26 17:00N 51°24' W 057°06'0 0.0 210 / 141024.0 -0.0-1.2
2017-Apr-26 16:00N 51°24' W 057°06'10 9.6 210 / 141025.3 0.1-2.7
2017-Apr-26 15:00N 51°18' W 056°54'7 7.1 210 / 191025.9 1.1-4.2
2017-Apr-26 14:00N 51°12' W 056°48'0 0.0 210 / 151026.9 1.1-3.4
2017-Apr-26 13:00N 51°12' W 056°48'7 7.1 210 / 161027.5 2.4-1.8
2017-Apr-26 12:00N 51°18' W 056°54'10 9.6 220 / 181027.9 -0.4-1.1
2017-Apr-26 11:00N 51°24' W 057°06'0 0.0 230 / 101028.7 -0.3-1.2
2017-Apr-26 10:00N 51°24' W 057°06'7 7.5 210 / 141028.5 -1.3-2.2
2017-Apr-26 09:00N 51°24' W 056°54'4 3.7 220 / 231028.2 -0.9-1.8
2017-Apr-26 08:00N 51°24' W 056°48'4 3.7 230 / 151029.0 -1.6-2.8
2017-Apr-26 07:00N 51°24' W 056°54'0 0.0 230 / 161029.0 -1.6-2.7
2017-Apr-26 06:00N 51°24' W 056°54'0 0.0 210 / 161028.9 -1.6-3.1
2017-Apr-26 05:00N 51°24' W 056°54'7 7.1 210 / 181029.3 -1.7-3.5
2017-Apr-26 04:00N 51°18' W 057°00'4 3.8 220 / 161029.0 -1.5-3.3
2017-Apr-26 03:00N 51°18' W 057°06'0 0.0 210 / 191028.4 -1.6-3.6
2017-Apr-26 02:00N 51°18' W 057°06'0 0.0 210 / 181028.2 -1.7-3.8
2017-Apr-26 01:00N 51°18' W 057°06'0 0.0 210 / 181028.1 -2.2-4.2
2017-Apr-26 00:00N 51°18' W 057°06'0 0.0 210 / 181027.8 -2.1-4.4
2017-Apr-25 22:00N 51°18' W 057°06'0 0.0 210 / 221026.3 -2.2-5.1
2017-Apr-25 21:00N 51°18' W 057°06'6 6.0 220 / 221026.5 -2.1-5.2
2017-Apr-25 20:00N 51°24' W 057°06'0 0.0 220 / 201026.2 -1.4-5.7
2017-Apr-25 19:00N 51°24' W 057°06'0 0.0 220 / 161025.9 -1.5-6.4
2017-Apr-25 18:00N 51°24' W 057°06'0 0.0 220 / 211025.5 -3.1-8.2
2017-Apr-25 17:00N 51°24' W 057°06'6 6.0 230 / 221025.2 -3.5-9.2
2017-Apr-25 16:00N 51°18' W 057°06'10 9.6 240 / 181025.1 -4.2-10.4
2017-Apr-25 15:00N 51°12' W 056°54'4 3.8 250 / 271023.4 -4.6-11.8
2017-Apr-25 14:00N 51°12' W 056°48'1312.8 230 / 61024.8 5.2-4.6
2017-Apr-25 13:00N 51°18' W 057°06'0 0.0 270 / 161024.3 -3.1-10.1
2017-Apr-25 12:00N 51°18' W 057°06'6 6.0 260 / 141023.5 -3.6-11.0
2017-Apr-25 11:00N 51°24' W 057°06'0 0.0 260 / 181022.5 -3.1-9.9
2017-Apr-25 10:00N 51°24' W 057°06'6 6.0 260 / 181022.1 -5.8-11.4
2017-Apr-25 09:00N 51°18' W 057°06'0 0.0 290 / 121021.6 -6.0-11.2
2017-Apr-25 07:00N 51°18' W 057°06'4 3.8 270 / 131020.4 -3.9-9.7
2017-Apr-25 06:00N 51°18' W 057°12'0 0.0 250 / 121019.8 -2.9-9.3
2017-Apr-25 05:00N 51°18' W 057°12'4 3.8 260 / 141019.3 -2.1-8.8
2017-Apr-25 04:00N 51°18' W 057°18'0 0.0 260 / 151018.7 -4.7-10.0
2017-Apr-25 03:00N 51°18' W 057°18'0 0.0 270 / 191018.1 -4.3-10.4
2017-Apr-25 02:00N 51°18' W 057°18'4 3.8 270 / 181017.2 -3.7-9.3
2017-Apr-25 01:00N 51°18' W 057°24'0 0.0 280 / 171015.5 -2.4-7.7
2017-Apr-25 00:00N 51°18' W 057°24'4 3.8 290 / 161013.6 -1.1-6.3
2017-Apr-24 23:00N 51°18' W 057°18'8 7.5 240 / 241011.1 -0.7-1.8
2017-Apr-24 22:00N 51°18' W 057°06'0 0.0 240 / 191010.6 2.7 0.5
2017-Apr-24 21:00N 51°18' W 057°06'10 9.6 230 / 251010.0 1.2-0.0
2017-Apr-24 20:00N 51°12' W 056°54'4 3.8 230 / 311008.8 -0.0-0.9
2017-Apr-24 19:00N 51°12' W 056°48'0 0.0 200 / 41009.2 7.8 4.3
2017-Apr-24 18:00N 51°12' W 056°48'6 6.0 230 / 301007.4 0.4 0.3
2017-Apr-24 17:00N 51°18' W 056°48'4 3.8 220 / 281008.4 0.4-0.0
2017-Apr-24 16:00N 51°18' W 056°54'0 0.0 220 / 211008.6 0.8 0.7
2017-Apr-24 15:00N 51°18' W 056°54'0 0.0 210 / 211008.8 0.5 0.4
2017-Apr-24 14:00N 51°18' W 056°54'7 7.1 210 / 231008.8 0.2 0.1
2017-Apr-24 13:00N 51°24' W 057°00'4 3.7 210 / 151009.1 0.2 0.1
2017-Apr-24 12:00N 51°24' W 057°06'0 0.0 210 / 131010.0 -0.1-0.2
2017-Apr-24 11:00N 51°24' W 057°06'0 0.0 220 / 131010.3 -0.2-0.3
2017-Apr-24 10:00N 51°24' W 057°06'4 3.7 220 / 111010.3 -0.1-0.2
2017-Apr-24 09:00N 51°24' W 057°00'4 3.7 220 / 181010.1 -1.3-1.4
2017-Apr-24 08:00N 51°24' W 056°54'0 0.0 220 / 211010.1 -0.8-0.9
2017-Apr-24 07:00N 51°24' W 056°54'0 0.0 210 / 191010.3 -0.8-0.9
2017-Apr-24 06:00N 51°24' W 056°54'0 0.0 200 / 191010.2 -0.6-0.7
2017-Apr-24 05:00N 51°24' W 056°54'0 0.0 210 / 161010.2 -0.9-1.0
2017-Apr-24 04:00N 51°24' W 056°54'0 0.0 220 / 121010.2 -0.9-1.1
2017-Apr-24 03:00N 51°24' W 056°54'0 0.0 220 / 111010.2 -1.0-1.2
2017-Apr-24 02:00N 51°24' W 056°54'4 3.7 200 / 111010.1 -1.0-1.2
2017-Apr-24 01:00N 51°24' W 057°00'0 0.0 210 / 81010.3 -1.4-1.6
2017-Apr-24 00:00N 51°24' W 057°00'4 3.7 220 / 51010.3 -1.7-2.0
2017-Apr-23 23:00N 51°24' W 056°54'7 7.5 220 / 71009.7 -0.6-1.1
2017-Apr-23 22:00N 51°24' W 057°06'0 0.0 220 / 11009.4 0.2-0.7
2017-Apr-23 21:00N 51°24' W 057°06'0 0.0 240 / 61009.2 0.5-0.6
2017-Apr-23 20:00N 51°24' W 057°06'7 7.5 240 / 51009.5 0.5-0.7
2017-Apr-23 19:00N 51°24' W 056°54'6 6.0 220 / 81009.7 0.6-0.7
2017-Apr-23 18:00N 51°18' W 056°54'0 0.0 220 / 91009.8 0.3-1.0
2017-Apr-23 17:00N 51°18' W 056°54'0 0.0 220 / 81010.2 0.7-0.6
2017-Apr-23 16:00N 51°18' W 056°54'0 0.0 230 / 91010.7 0.6-0.8
2017-Apr-23 15:00N 51°18' W 056°54'4 3.8 230 / 81011.6 0.6-1.1
2017-Apr-23 14:00N 51°18' W 057°00'7 7.1 230 / 31012.1 2.9-0.0
2017-Apr-23 13:00N 51°24' W 057°06'0 0.0 310 / 31012.1 3.0-0.7
2017-Apr-23 12:00N 51°24' W 057°06'4 3.7 300 / 31012.4 0.9-1.2
2017-Apr-23 11:00N 51°24' W 057°00'4 3.7 300 / 31012.7 0.9-1.3
2017-Apr-23 10:00N 51°24' W 057°06'0 0.0 360 / 111013.1 0.5-1.7
2017-Apr-23 09:00N 51°24' W 057°06'7 7.1 320 / 31013.4 0.1-1.7
2017-Apr-23 08:00N 51°18' W 057°00'4 3.8 290 / 41014.4 -0.0-1.4
2017-Apr-23 07:00N 51°18' W 056°54'0 0.0 350 / 71015.1 0.3-1.3
2017-Apr-23 06:00N 51°18' W 056°54'0 0.0 350 / 21016.0 0.7-1.1
2017-Apr-23 05:00N 51°18' W 056°54'0 0.0 340 / 31016.5 0.5-0.9
2017-Apr-23 03:00N 51°18' W 056°54'4 3.8 030 / 11018.8 1.6-0.0
2017-Apr-23 02:00N 51°18' W 057°00'0 0.0 020 / 51019.8 0.7-0.5
2017-Apr-23 01:00N 51°18' W 057°00'0 0.0 020 / 81020.2 1.0-0.6
2017-Apr-23 00:00N 51°18' W 057°00'0 0.0 030 / 81020.9 0.8-0.7
2017-Apr-22 23:00N 51°18' W 057°00'4 3.8 070 / 61021.4 1.5-0.2
2017-Apr-22 22:00N 51°18' W 056°54'0 0.0 070 / 91022.0 1.6-0.1
2017-Apr-22 21:00N 51°18' W 056°54'0 0.0 070 / 81022.5 2.9 0.3
2017-Apr-22 20:00N 51°18' W 056°54'0 0.0 070 / 91022.7 2.5-0.1
2017-Apr-22 19:00N 51°18' W 056°54'4 3.8 050 / 51023.5 3.0-0.0
2017-Apr-22 18:00N 51°18' W 057°00'7 7.1 050 / 71023.9 0.9-0.5
2017-Apr-22 17:00N 51°24' W 057°06'0 0.0 060 / 91024.5 0.8-1.0
2017-Apr-22 16:00N 51°24' W 057°06'0 0.0 110 / 71025.2 3.3-0.4
2017-Apr-22 15:00N 51°24' W 057°06'0 0.0 090 / 71026.1 1.1-1.2
2017-Apr-22 14:00N 51°24' W 057°06'0 0.0 070 / 51026.5 3.9 0.1
2017-Apr-22 13:00N 51°24' W 057°06'0 0.0 050 / 61026.9 4.7 0.3
2017-Apr-22 12:00N 51°24' W 057°06'0 0.0 080 / 51027.2 4.6-0.3
2017-Apr-22 11:00N 51°24' W 057°06'0 0.0 040 / 31027.4 2.3-0.9
2017-Apr-22 10:00N 51°24' W 057°06'7 7.1 020 / 91027.5 0.6-2.0
2017-Apr-22 09:00N 51°18' W 057°00'0 0.0 040 / 121027.2 -0.0-1.6
2017-Apr-22 08:00N 51°18' W 057°00'0 0.0 030 / 71027.0 -0.2-1.7
2017-Apr-22 07:00N 51°18' W 057°00'0 0.0 040 / 51027.3 -0.4-1.8
2017-Apr-22 06:00N 51°18' W 057°00'0 0.0 040 / 81027.4 -0.2-1.9
2017-Apr-22 05:00N 51°18' W 057°00'0 0.0 030 / 71027.8 -0.5-2.1
2017-Apr-22 04:00N 51°18' W 057°00'0 0.0 060 / 101028.1 -0.4-2.1
2017-Apr-22 03:00N 51°18' W 057°00'0 0.0 050 / 91028.6 -0.7-2.1
2017-Apr-22 02:00N 51°18' W 057°00'0 0.0 060 / 101028.8 -1.0-2.3
2017-Apr-22 01:00N 51°18' W 057°00'0 0.0 050 / 51029.0 -0.8-3.0
2017-Apr-22 00:00N 51°18' W 057°00'0 0.0 020 / 51029.0 -1.6-3.6
2017-Apr-21 23:00N 51°18' W 057°00'0 0.0 050 / 71028.1 -1.6-3.9
2017-Apr-21 22:00N 51°18' W 057°00'0 0.0 050 / 61027.5 -1.0-4.0
2017-Apr-21 21:00N 51°18' W 057°00'4 3.8 050 / 71027.4 -0.9-4.0
2017-Apr-21 20:00N 51°18' W 056°54'10 9.6 080 / 121027.1 -0.0-4.2
2017-Apr-21 19:00N 51°24' W 057°06'0 0.0 060 / 81027.1 -0.6-2.9
2017-Apr-21 18:00N 51°24' W 057°06'0 0.0 100 / 131027.1 0.3-3.6
2017-Apr-21 17:00N 51°24' W 057°06'0 0.0 030 / 11026.9 1.9-3.8
2017-Apr-21 16:00N 51°24' W 057°06'0 0.0 050 / 21027.2 1.5-4.1
2017-Apr-21 15:00N 51°24' W 057°06'0 0.0 050 / 21027.4 1.3-4.8
2017-Apr-21 14:00N 51°24' W 057°06'6 6.0 120 / 61027.5 -0.1-5.3
2017-Apr-21 13:00N 51°18' W 057°06'7 7.1 060 / 71027.1 -2.9-6.2
2017-Apr-21 12:00N 51°12' W 057°12'1312.6 030 / 101026.6 -4.0-6.5
2017-Apr-21 11:00N 51°00' W 057°18'1312.6 010 / 61026.4 -2.0-4.6
2017-Apr-21 10:00N 50°48' W 057°24'1414.2 010 / 71026.1 -1.6-3.3
2017-Apr-21 09:00N 50°36' W 057°36'10 9.7 360 / 91025.6 -1.1-3.1
2017-Apr-21 08:00N 50°30' W 057°48'1212.0 010 / 71025.6 -0.8-3.2
2017-Apr-21 07:00N 50°18' W 057°48'7 7.1 010 / 81025.3 -0.6-4.6
2017-Apr-21 06:00N 50°12' W 057°54'1312.6 360 / 71025.2 -0.4-3.8
2017-Apr-21 05:00N 50°00' W 058°00'7 7.1 010 / 91025.3 -0.5-3.6
2017-Apr-21 04:00N 49°54' W 058°06'7 7.1 010 / 91025.7 -0.5-3.7
2017-Apr-21 03:00N 49°48' W 058°12'1312.6 010 / 101026.0 -0.3-3.6
2017-Apr-21 02:00N 49°36' W 058°18'7 7.2 010 / 111026.6 -0.1-3.4
2017-Apr-21 01:00N 49°30' W 058°24'3 4.2 020 / 121026.9 -0.2-2.7
2017-Apr-21 00:23N 49°27' W 058°24'3 7.6
2017-Apr-20 23:59N 49°24' W 058°24'4 7.7
2017-Apr-20 23:30N 49°21' W 058°24'3 5.2
2017-Apr-20 23:00N 49°18' W 058°24'319.6 360 / 181026.2 0.2-3.6
2017-Apr-20 22:50N 49°17' W 058°20'513.9
2017-Apr-20 22:30N 49°14' W 058°14'815.6
2017-Apr-20 22:00N 49°06' W 058°12'2428.2 280 / 141026.6 0.6-4.7
2017-Apr-20 21:59N 49°08' W 058°10'612.2
2017-Apr-20 21:30N 49°02' W 058°08'510.5
2017-Apr-20 21:00N 48°59' W 058°02'5291.4
2017-Apr-20 21:00N 48°54' W 058°00'4 8.4 280 / 171025.8 1.7-4.8
2017-Apr-20 20:30N 48°58' W 057°57'0 0.0
2017-Apr-20 20:00N 48°58' W 057°57'41285.1
2017-Apr-20 20:00N 48°54' W 057°54'4 7.9 220 / 171025.8 1.9-5.3
2017-Apr-20 19:30N 48°58' W 057°57'0 0.0
2017-Apr-20 19:00N 48°58' W 057°57'41570.6
2017-Apr-20 19:00N 48°54' W 057°54'4 7.9 220 / 171025.7 2.1-4.6
2017-Apr-20 18:30N 48°58' W 057°57'0 0.0
2017-Apr-20 18:00N 48°58' W 057°57'41413.6
2017-Apr-20 18:00N 48°54' W 057°54'4 7.9 250 / 61026.5 4.6-6.2
2017-Apr-20 17:30N 48°58' W 057°57'0 0.0
2017-Apr-20 17:00N 48°58' W 057°57'41413.6
2017-Apr-20 17:00N 48°54' W 057°54'4 7.9 330 / 51027.2 4.8-8.8
2017-Apr-20 16:30N 48°58' W 057°57'0 0.0
2017-Apr-20 16:00N 48°58' W 057°57'41414.2
2017-Apr-20 16:00N 48°54' W 057°54'4 7.9 360 / 51028.0 3.9-8.9
2017-Apr-20 15:30N 48°58' W 057°57'0 0.0
2017-Apr-20 15:00N 48°58' W 057°57'0 0.0
2017-Apr-20 14:30N 48°58' W 057°57'0 0.0
2017-Apr-20 13:30N 48°58' W 057°57'0 0.0
2017-Apr-20 13:00N 48°58' W 057°57'0 0.0
2017-Apr-20 12:30N 48°58' W 057°57'0 0.0
2017-Apr-20 12:00N 48°58' W 057°57'41571.3
2017-Apr-20 12:00N 48°54' W 057°54'4 7.9 010 / 41030.9 -2.9-8.6
2017-Apr-20 11:30N 48°58' W 057°57'0 0.0
2017-Apr-20 11:00N 48°58' W 057°57'41285.1
2017-Apr-20 11:00N 48°54' W 057°54'4 7.9 010 / 41031.4 -4.8-9.0
2017-Apr-20 10:30N 48°58' W 057°57'0 0.0
2017-Apr-20 10:00N 48°58' W 057°57'41413.6
2017-Apr-20 10:00N 48°54' W 057°54'4 8.2 1031.3 -5.1-9.3
2017-Apr-20 09:31N 48°58' W 057°57'5 9.0
2017-Apr-20 09:00N 48°59' W 058°03'5318.3
2017-Apr-20 09:00N 48°54' W 058°06'815.7 120 / 121030.2 -5.2-8.7
2017-Apr-20 08:30N 49°02' W 058°07'3 6.5
2017-Apr-20 08:00N 49°05' W 058°09'2169.1
2017-Apr-20 08:00N 49°06' W 058°12'6 6.0 150 / 121030.2 -3.3-8.5
2017-Apr-20 07:00N 49°12' W 058°12'1 7.5 120 / 101030.7 -3.0-7.5
2017-Apr-20 06:52N 49°11' W 058°11'2 5.4
2017-Apr-20 06:30N 49°13' W 058°12'4 7.8
2017-Apr-20 06:00N 49°12' W 058°18'7 7.2 120 / 121030.8 -1.7-7.4
2017-Apr-20 05:00N 49°18' W 058°24'0 4.2 150 / 121031.1 -0.7-6.4
2017-Apr-20 04:54N 49°18' W 058°24'6 6.3
2017-Apr-20 04:00N 49°24' W 058°24'6 6.0 180 / 91031.8 -0.2-5.5
2017-Apr-20 03:00N 49°30' W 058°24'7 7.2 160 / 21032.3 -0.6-5.7
2017-Apr-20 02:00N 49°36' W 058°18'6 6.0 070 / 81032.5 -1.5-5.7
2017-Apr-20 01:00N 49°42' W 058°18'7 7.1 080 / 81033.2 -1.7-6.6
2017-Apr-20 00:00N 49°48' W 058°12'7 7.1 040 / 41033.6 -2.0-6.8
2017-Apr-19 23:00N 49°54' W 058°06'7 7.1 320 / 31033.8 -1.9-6.8
2017-Apr-19 22:00N 50°00' W 058°00'1312.6 270 / 41034.0 -1.8-6.6
2017-Apr-19 21:00N 50°12' W 057°54'7 7.1 280 / 91034.4 -1.8-6.6
2017-Apr-19 20:00N 50°18' W 057°48'7 7.1 260 / 111034.8 -2.0-6.8
2017-Apr-19 19:00N 50°24' W 057°42'1312.6 260 / 131035.1 -2.2-6.1
2017-Apr-19 18:00N 50°36' W 057°36'7 7.1 240 / 141035.5 -2.5-6.0
2017-Apr-19 17:00N 50°42' W 057°30'1312.6 230 / 141036.1 -2.7-6.4
2017-Apr-19 16:00N 50°54' W 057°24'1414.2 220 / 141036.5 -3.0-7.0
2017-Apr-19 15:00N 51°06' W 057°12'1212.0 220 / 141037.3 -3.5-7.2
2017-Apr-19 14:00N 51°18' W 057°12'4 3.8 190 / 21038.2 -5.8-7.6
2017-Apr-19 13:00N 51°18' W 057°06'7 7.1 250 / 11038.7 -6.9-8.6
2017-Apr-19 12:00N 51°12' W 057°12'6 6.0 290 / 61038.9 -7.4-8.6
2017-Apr-19 11:00N 51°18' W 057°12'   020 / 31038.9 -9.9-10.8
Track history (hours):
 
Tides and Currents Weather Stations Pressure Air Temp Water Temp Dewpoint Dewpoint Depression Visibility Wind Speed Wind Dir Waves Ship Positions

Oceanographic research ship CCGS Terry Fox (Canada)

Detailed information on ship capabilities available from ARCUS's ALIAS (Arctic Logistics Information and Support) project.

Last reported at 2017-Apr-29 11:00 UTC. Time now 2017-Apr-29 11:32 UTC.
Position N 51°24' W 057°06'.

Length 88 m; beam 17.82 m; draft 2 m.

Type: SAR. MMSI: 316122000.

Wind from 250 at 8 knots

Barometer 1003.9 mb
Air temperature -0.3 ° C
Dewpoint -0.3 ° C

Date/timePositionNaut miles runAvg speedWind from/ knotsBaromVisibWave heightAir tempDewpointWater temp
2017-Apr-29 11:00N 51°24' W 057°06'0 0.0 250 / 81003.9 -0.3-0.3
2017-Apr-29 10:00N 51°24' W 057°06'0 0.0 240 / 71003.8 -0.3-0.4
2017-Apr-29 09:00N 51°24' W 057°06'7 7.1 220 / 61004.4 -0.1-0.1
2017-Apr-29 08:00N 51°18' W 057°12'4 3.8 260 / 111005.1 -0.0-0.0
2017-Apr-29 07:00N 51°18' W 057°18'0 0.0 260 / 11006.1 0.4 0.3
2017-Apr-29 06:00N 51°18' W 057°18'0 0.0 100 / 11007.0 -0.1-0.1
2017-Apr-29 05:00N 51°18' W 057°18'4 3.8 100 / 11008.0 -0.6-0.6
2017-Apr-29 04:00N 51°18' W 057°12'0 0.0 090 / 11009.1 -0.2-0.2
2017-Apr-29 03:00N 51°18' W 057°12'4 3.8 060 / 41010.2 -0.7-0.7
2017-Apr-29 02:00N 51°18' W 057°06'0 0.0 060 / 51011.6 -0.7-0.7
2017-Apr-29 01:00N 51°18' W 057°06'0 0.0 050 / 51012.7 -0.7-0.7
2017-Apr-29 00:00N 51°18' W 057°06'4 3.8 050 / 51014.2 -0.6-0.6
2017-Apr-28 23:00N 51°18' W 057°00'4 3.8 050 / 71015.4 -0.9-1.0
2017-Apr-28 22:00N 51°18' W 056°54'0 0.0 050 / 71016.5 -0.8-0.9
2017-Apr-28 21:00N 51°18' W 056°54'0 0.0 050 / 91017.9 -0.8-0.8
2017-Apr-28 20:00N 51°18' W 056°54'0 0.0 060 / 111019.0 -0.8-0.8
2017-Apr-28 19:00N 51°18' W 056°54'0 0.0 070 / 151020.1 -0.4-0.5
2017-Apr-28 18:00N 51°18' W 056°54'10 9.6 060 / 91020.5 -0.2-0.2
2017-Apr-28 17:00N 51°24' W 057°06'0 0.0 070 / 191021.8 -1.4-1.5
2017-Apr-28 16:00N 51°24' W 057°06'0 0.0 070 / 201022.5 -1.7-1.8
2017-Apr-28 15:00N 51°24' W 057°06'0 0.0 080 / 171024.0 -2.0-2.1
2017-Apr-28 14:00N 51°24' W 057°06'0 0.0 070 / 141024.8 0.7 0.6
2017-Apr-28 13:00N 51°24' W 057°06'0 0.0 070 / 161025.1 -2.3-2.4
2017-Apr-28 12:00N 51°24' W 057°06'0 0.0 070 / 111025.4 -0.3-0.4
2017-Apr-28 11:00N 51°24' W 057°06'0 0.0 050 / 41026.2 -0.4-0.5
2017-Apr-28 10:00N 51°24' W 057°06'7 7.1 070 / 121025.9 -1.7-1.8
2017-Apr-28 09:00N 51°18' W 057°00'0 0.0 060 / 111025.6 -3.3-3.4
2017-Apr-28 08:00N 51°18' W 057°00'7 7.1 060 / 171025.8 -3.5-3.7
2017-Apr-28 07:00N 51°24' W 056°54'0 0.0 060 / 101026.0 -0.1-0.4
2017-Apr-28 06:00N 51°24' W 056°54'0 0.0 050 / 131027.0 -2.0-2.2
2017-Apr-28 05:00N 51°24' W 056°54'6 6.0 050 / 101027.4 -1.4-1.6
2017-Apr-28 04:00N 51°18' W 056°54'0 0.0 080 / 121028.0 -2.6-2.7
2017-Apr-28 03:00N 51°18' W 056°54'10 9.6 070 / 191029.1 -4.5-4.6
2017-Apr-28 02:00N 51°24' W 056°42'10 9.6 080 / 161030.2 -4.2-4.4
2017-Apr-28 01:00N 51°30' W 056°30'1312.7 090 / 111030.9 -4.2-4.9
2017-Apr-28 00:00N 51°36' W 056°12'7 7.5 080 / 91031.2 -4.3-4.9
2017-Apr-27 23:00N 51°36' W 056°00'13 6.3 080 / 81031.6 -4.7-5.6
2017-Apr-27 21:00N 51°42' W 055°42'7 7.4 130 / 71031.6 -5.1-6.2
2017-Apr-27 20:00N 51°42' W 055°30'7 7.4 090 / 51031.6 -5.8-6.7
2017-Apr-27 19:00N 51°42' W 055°42'1312.7 100 / 61031.8 -5.7-6.9
2017-Apr-27 18:00N 51°36' W 056°00'1312.7 080 / 81032.5 -5.6-6.8
2017-Apr-27 17:00N 51°30' W 056°18'1616.1 080 / 101031.6 -5.0-6.4
2017-Apr-27 16:00N 51°24' W 056°42'1414.2 090 / 141031.4 -4.0-4.7
2017-Apr-27 15:00N 51°12' W 056°54'1414.2 070 / 131030.7 -3.3-3.7
2017-Apr-27 14:00N 51°24' W 057°06'0 0.0 070 / 141030.8 -3.8-4.0
2017-Apr-27 13:00N 51°24' W 057°06'0 0.0 070 / 81030.7 4.4 1.3
2017-Apr-27 12:00N 51°24' W 057°06'10 9.6 060 / 141029.5 -2.2-4.1
2017-Apr-27 11:00N 51°18' W 056°54'0 0.0 080 / 41028.9 -0.8-1.6
2017-Apr-27 10:00N 51°18' W 056°54'7 7.1 080 / 111027.8 -2.3-2.4
2017-Apr-27 09:00N 51°12' W 057°00'0 0.0 030 / 71026.8 -0.3-0.4
2017-Apr-27 08:00N 51°12' W 057°00'0 0.0 030 / 151025.0 -1.1-1.2
2017-Apr-27 07:00N 51°12' W 057°00'0 0.0 050 / 141022.7 1.5 1.4
2017-Apr-27 06:00N 51°12' W 057°00'4 3.8 320 / 41021.7 1.6 1.5
2017-Apr-27 05:00N 51°12' W 057°06'0 0.0 280 / 51020.6 0.9 0.8
2017-Apr-27 04:00N 51°12' W 057°06'0 0.0 260 / 61020.3 2.2 2.1
2017-Apr-27 03:00N 51°12' W 057°06'0 0.0 230 / 81020.0 2.3 2.2
2017-Apr-27 02:00N 51°12' W 057°06'0 0.0 230 / 121020.2 1.6 1.5
2017-Apr-27 01:00N 51°12' W 057°06'0 0.0 220 / 91020.4 3.4 3.3
2017-Apr-27 00:00N 51°12' W 057°06'0 0.0 220 / 91020.5 2.9 2.8
2017-Apr-26 23:00N 51°12' W 057°06'0 0.0 210 / 101020.9 2.6 2.5
2017-Apr-26 22:00N 51°12' W 057°06'1111.3 250 / 181020.7 0.9 0.8
2017-Apr-26 21:00N 51°12' W 056°48'10 9.6 220 / 31022.5 1.2 1.0
2017-Apr-26 20:00N 51°18' W 057°00'7 7.1 250 / 111022.7 0.3 0.2
2017-Apr-26 19:00N 51°24' W 057°06'0 0.0 240 / 81023.8 1.0 0.6
2017-Apr-26 18:00N 51°24' W 057°06'0 0.0 230 / 71023.8 2.7 0.7
2017-Apr-26 17:00N 51°24' W 057°06'0 0.0 210 / 141024.0 -0.0-1.2
2017-Apr-26 16:00N 51°24' W 057°06'10 9.6 210 / 141025.3 0.1-2.7
2017-Apr-26 15:00N 51°18' W 056°54'7 7.1 210 / 191025.9 1.1-4.2
2017-Apr-26 14:00N 51°12' W 056°48'0 0.0 210 / 151026.9 1.1-3.4
2017-Apr-26 13:00N 51°12' W 056°48'7 7.1 210 / 161027.5 2.4-1.8
2017-Apr-26 12:00N 51°18' W 056°54'10 9.6 220 / 181027.9 -0.4-1.1
2017-Apr-26 11:00N 51°24' W 057°06'0 0.0 230 / 101028.7 -0.3-1.2
2017-Apr-26 10:00N 51°24' W 057°06'7 7.5 210 / 141028.5 -1.3-2.2
2017-Apr-26 09:00N 51°24' W 056°54'4 3.7 220 / 231028.2 -0.9-1.8
2017-Apr-26 08:00N 51°24' W 056°48'4 3.7 230 / 151029.0 -1.6-2.8
2017-Apr-26 07:00N 51°24' W 056°54'0 0.0 230 / 161029.0 -1.6-2.7
2017-Apr-26 06:00N 51°24' W 056°54'0 0.0 210 / 161028.9 -1.6-3.1
2017-Apr-26 05:00N 51°24' W 056°54'7 7.1 210 / 181029.3 -1.7-3.5
2017-Apr-26 04:00N 51°18' W 057°00'4 3.8 220 / 161029.0 -1.5-3.3
2017-Apr-26 03:00N 51°18' W 057°06'0 0.0 210 / 191028.4 -1.6-3.6
2017-Apr-26 02:00N 51°18' W 057°06'0 0.0 210 / 181028.2 -1.7-3.8
2017-Apr-26 01:00N 51°18' W 057°06'0 0.0 210 / 181028.1 -2.2-4.2
2017-Apr-26 00:00N 51°18' W 057°06'0 0.0 210 / 181027.8 -2.1-4.4
2017-Apr-25 22:00N 51°18' W 057°06'0 0.0 210 / 221026.3 -2.2-5.1
2017-Apr-25 21:00N 51°18' W 057°06'6 6.0 220 / 221026.5 -2.1-5.2
2017-Apr-25 20:00N 51°24' W 057°06'0 0.0 220 / 201026.2 -1.4-5.7
2017-Apr-25 19:00N 51°24' W 057°06'0 0.0 220 / 161025.9 -1.5-6.4
2017-Apr-25 18:00N 51°24' W 057°06'0 0.0 220 / 211025.5 -3.1-8.2
2017-Apr-25 17:00N 51°24' W 057°06'6 6.0 230 / 221025.2 -3.5-9.2
2017-Apr-25 16:00N 51°18' W 057°06'10 9.6 240 / 181025.1 -4.2-10.4
2017-Apr-25 15:00N 51°12' W 056°54'4 3.8 250 / 271023.4 -4.6-11.8
2017-Apr-25 14:00N 51°12' W 056°48'1312.8 230 / 61024.8 5.2-4.6
2017-Apr-25 13:00N 51°18' W 057°06'0 0.0 270 / 161024.3 -3.1-10.1
2017-Apr-25 12:00N 51°18' W 057°06'6 6.0 260 / 141023.5 -3.6-11.0
2017-Apr-25 11:00N 51°24' W 057°06'0 0.0 260 / 181022.5 -3.1-9.9
2017-Apr-25 10:00N 51°24' W 057°06'6 6.0 260 / 181022.1 -5.8-11.4
2017-Apr-25 09:00N 51°18' W 057°06'0 0.0 290 / 121021.6 -6.0-11.2
2017-Apr-25 07:00N 51°18' W 057°06'4 3.8 270 / 131020.4 -3.9-9.7
2017-Apr-25 06:00N 51°18' W 057°12'0 0.0 250 / 121019.8 -2.9-9.3
2017-Apr-25 05:00N 51°18' W 057°12'4 3.8 260 / 141019.3 -2.1-8.8
2017-Apr-25 04:00N 51°18' W 057°18'0 0.0 260 / 151018.7 -4.7-10.0
2017-Apr-25 03:00N 51°18' W 057°18'0 0.0 270 / 191018.1 -4.3-10.4
2017-Apr-25 02:00N 51°18' W 057°18'4 3.8 270 / 181017.2 -3.7-9.3
2017-Apr-25 01:00N 51°18' W 057°24'0 0.0 280 / 171015.5 -2.4-7.7
2017-Apr-25 00:00N 51°18' W 057°24'4 3.8 290 / 161013.6 -1.1-6.3
2017-Apr-24 23:00N 51°18' W 057°18'8 7.5 240 / 241011.1 -0.7-1.8
2017-Apr-24 22:00N 51°18' W 057°06'0 0.0 240 / 191010.6 2.7 0.5
2017-Apr-24 21:00N 51°18' W 057°06'10 9.6 230 / 251010.0 1.2-0.0
2017-Apr-24 20:00N 51°12' W 056°54'4 3.8 230 / 311008.8 -0.0-0.9
2017-Apr-24 19:00N 51°12' W 056°48'0 0.0 200 / 41009.2 7.8 4.3
2017-Apr-24 18:00N 51°12' W 056°48'6 6.0 230 / 301007.4 0.4 0.3
2017-Apr-24 17:00N 51°18' W 056°48'4 3.8 220 / 281008.4 0.4-0.0
2017-Apr-24 16:00N 51°18' W 056°54'0 0.0 220 / 211008.6 0.8 0.7
2017-Apr-24 15:00N 51°18' W 056°54'0 0.0 210 / 211008.8 0.5 0.4
2017-Apr-24 14:00N 51°18' W 056°54'7 7.1 210 / 231008.8 0.2 0.1
2017-Apr-24 13:00N 51°24' W 057°00'4 3.7 210 / 151009.1 0.2 0.1
2017-Apr-24 12:00N 51°24' W 057°06'0 0.0 210 / 131010.0 -0.1-0.2
2017-Apr-24 11:00N 51°24' W 057°06'0 0.0 220 / 131010.3 -0.2-0.3
2017-Apr-24 10:00N 51°24' W 057°06'4 3.7 220 / 111010.3 -0.1-0.2
2017-Apr-24 09:00N 51°24' W 057°00'4 3.7 220 / 181010.1 -1.3-1.4
2017-Apr-24 08:00N 51°24' W 056°54'0 0.0 220 / 211010.1 -0.8-0.9
2017-Apr-24 07:00N 51°24' W 056°54'0 0.0 210 / 191010.3 -0.8-0.9
2017-Apr-24 06:00N 51°24' W 056°54'0 0.0 200 / 191010.2 -0.6-0.7
2017-Apr-24 05:00N 51°24' W 056°54'0 0.0 210 / 161010.2 -0.9-1.0
2017-Apr-24 04:00N 51°24' W 056°54'0 0.0 220 / 121010.2 -0.9-1.1
2017-Apr-24 03:00N 51°24' W 056°54'0 0.0 220 / 111010.2 -1.0-1.2
2017-Apr-24 02:00N 51°24' W 056°54'4 3.7 200 / 111010.1 -1.0-1.2
2017-Apr-24 01:00N 51°24' W 057°00'0 0.0 210 / 81010.3 -1.4-1.6
2017-Apr-24 00:00N 51°24' W 057°00'4 3.7 220 / 51010.3 -1.7-2.0
2017-Apr-23 23:00N 51°24' W 056°54'7 7.5 220 / 71009.7 -0.6-1.1
2017-Apr-23 22:00N 51°24' W 057°06'0 0.0 220 / 11009.4 0.2-0.7
2017-Apr-23 21:00N 51°24' W 057°06'0 0.0 240 / 61009.2 0.5-0.6
2017-Apr-23 20:00N 51°24' W 057°06'7 7.5 240 / 51009.5 0.5-0.7
2017-Apr-23 19:00N 51°24' W 056°54'6 6.0 220 / 81009.7 0.6-0.7
2017-Apr-23 18:00N 51°18' W 056°54'0 0.0 220 / 91009.8 0.3-1.0
2017-Apr-23 17:00N 51°18' W 056°54'0 0.0 220 / 81010.2 0.7-0.6
2017-Apr-23 16:00N 51°18' W 056°54'0 0.0 230 / 91010.7 0.6-0.8
2017-Apr-23 15:00N 51°18' W 056°54'4 3.8 230 / 81011.6 0.6-1.1
2017-Apr-23 14:00N 51°18' W 057°00'7 7.1 230 / 31012.1 2.9-0.0
2017-Apr-23 13:00N 51°24' W 057°06'0 0.0 310 / 31012.1 3.0-0.7
2017-Apr-23 12:00N 51°24' W 057°06'4 3.7 300 / 31012.4 0.9-1.2
2017-Apr-23 11:00N 51°24' W 057°00'4 3.7 300 / 31012.7 0.9-1.3
2017-Apr-23 10:00N 51°24' W 057°06'0 0.0 360 / 111013.1 0.5-1.7
2017-Apr-23 09:00N 51°24' W 057°06'7 7.1 320 / 31013.4 0.1-1.7
2017-Apr-23 08:00N 51°18' W 057°00'4 3.8 290 / 41014.4 -0.0-1.4
2017-Apr-23 07:00N 51°18' W 056°54'0 0.0 350 / 71015.1 0.3-1.3
2017-Apr-23 06:00N 51°18' W 056°54'0 0.0 350 / 21016.0 0.7-1.1
2017-Apr-23 05:00N 51°18' W 056°54'0 0.0 340 / 31016.5 0.5-0.9
2017-Apr-23 03:00N 51°18' W 056°54'4 3.8 030 / 11018.8 1.6-0.0
2017-Apr-23 02:00N 51°18' W 057°00'0 0.0 020 / 51019.8 0.7-0.5
2017-Apr-23 01:00N 51°18' W 057°00'0 0.0 020 / 81020.2 1.0-0.6
2017-Apr-23 00:00N 51°18' W 057°00'0 0.0 030 / 81020.9 0.8-0.7
2017-Apr-22 23:00N 51°18' W 057°00'4 3.8 070 / 61021.4 1.5-0.2
2017-Apr-22 22:00N 51°18' W 056°54'0 0.0 070 / 91022.0 1.6-0.1
2017-Apr-22 21:00N 51°18' W 056°54'0 0.0 070 / 81022.5 2.9 0.3
2017-Apr-22 20:00N 51°18' W 056°54'0 0.0 070 / 91022.7 2.5-0.1
2017-Apr-22 19:00N 51°18' W 056°54'4 3.8 050 / 51023.5 3.0-0.0
2017-Apr-22 18:00N 51°18' W 057°00'7 7.1 050 / 71023.9 0.9-0.5
2017-Apr-22 17:00N 51°24' W 057°06'0 0.0 060 / 91024.5 0.8-1.0
2017-Apr-22 16:00N 51°24' W 057°06'0 0.0 110 / 71025.2 3.3-0.4
2017-Apr-22 15:00N 51°24' W 057°06'0 0.0 090 / 71026.1 1.1-1.2
2017-Apr-22 14:00N 51°24' W 057°06'0 0.0 070 / 51026.5 3.9 0.1
2017-Apr-22 13:00N 51°24' W 057°06'0 0.0 050 / 61026.9 4.7 0.3
2017-Apr-22 12:00N 51°24' W 057°06'0 0.0 080 / 51027.2 4.6-0.3
2017-Apr-22 11:00N 51°24' W 057°06'0 0.0 040 / 31027.4 2.3-0.9
2017-Apr-22 10:00N 51°24' W 057°06'7 7.1 020 / 91027.5 0.6-2.0
2017-Apr-22 09:00N 51°18' W 057°00'0 0.0 040 / 121027.2 -0.0-1.6
2017-Apr-22 08:00N 51°18' W 057°00'0 0.0 030 / 71027.0 -0.2-1.7
2017-Apr-22 07:00N 51°18' W 057°00'0 0.0 040 / 51027.3 -0.4-1.8
2017-Apr-22 06:00N 51°18' W 057°00'0 0.0 040 / 81027.4 -0.2-1.9
2017-Apr-22 05:00N 51°18' W 057°00'0 0.0 030 / 71027.8 -0.5-2.1
2017-Apr-22 04:00N 51°18' W 057°00'0 0.0 060 / 101028.1 -0.4-2.1
2017-Apr-22 03:00N 51°18' W 057°00'0 0.0 050 / 91028.6 -0.7-2.1
2017-Apr-22 02:00N 51°18' W 057°00'0 0.0 060 / 101028.8 -1.0-2.3
2017-Apr-22 01:00N 51°18' W 057°00'0 0.0 050 / 51029.0 -0.8-3.0
2017-Apr-22 00:00N 51°18' W 057°00'0 0.0 020 / 51029.0 -1.6-3.6
2017-Apr-21 23:00N 51°18' W 057°00'0 0.0 050 / 71028.1 -1.6-3.9
2017-Apr-21 22:00N 51°18' W 057°00'0 0.0 050 / 61027.5 -1.0-4.0
2017-Apr-21 21:00N 51°18' W 057°00'4 3.8 050 / 71027.4 -0.9-4.0
2017-Apr-21 20:00N 51°18' W 056°54'10 9.6 080 / 121027.1 -0.0-4.2
2017-Apr-21 19:00N 51°24' W 057°06'0 0.0 060 / 81027.1 -0.6-2.9
2017-Apr-21 18:00N 51°24' W 057°06'0 0.0 100 / 131027.1 0.3-3.6
2017-Apr-21 17:00N 51°24' W 057°06'0 0.0 030 / 11026.9 1.9-3.8
2017-Apr-21 16:00N 51°24' W 057°06'0 0.0 050 / 21027.2 1.5-4.1
2017-Apr-21 15:00N 51°24' W 057°06'0 0.0 050 / 21027.4 1.3-4.8
2017-Apr-21 14:00N 51°24' W 057°06'6 6.0 120 / 61027.5 -0.1-5.3
2017-Apr-21 13:00N 51°18' W 057°06'7 7.1 060 / 71027.1 -2.9-6.2
2017-Apr-21 12:00N 51°12' W 057°12'1312.6 030 / 101026.6 -4.0-6.5
2017-Apr-21 11:00N 51°00' W 057°18'1312.6 010 / 61026.4 -2.0-4.6
2017-Apr-21 10:00N 50°48' W 057°24'1414.2 010 / 71026.1 -1.6-3.3
2017-Apr-21 09:00N 50°36' W 057°36'10 9.7 360 / 91025.6 -1.1-3.1
2017-Apr-21 08:00N 50°30' W 057°48'1212.0 010 / 71025.6 -0.8-3.2
2017-Apr-21 07:00N 50°18' W 057°48'7 7.1 010 / 81025.3 -0.6-4.6
2017-Apr-21 06:00N 50°12' W 057°54'1312.6 360 / 71025.2 -0.4-3.8
2017-Apr-21 05:00N 50°00' W 058°00'7 7.1 010 / 91025.3 -0.5-3.6
2017-Apr-21 04:00N 49°54' W 058°06'7 7.1 010 / 91025.7 -0.5-3.7
2017-Apr-21 03:00N 49°48' W 058°12'1312.6 010 / 101026.0 -0.3-3.6
2017-Apr-21 02:00N 49°36' W 058°18'7 7.2 010 / 111026.6 -0.1-3.4
2017-Apr-21 01:00N 49°30' W 058°24'3 4.2 020 / 121026.9 -0.2-2.7
2017-Apr-21 00:23N 49°27' W 058°24'3 7.6
2017-Apr-20 23:59N 49°24' W 058°24'4 7.7
2017-Apr-20 23:30N 49°21' W 058°24'3 5.2
2017-Apr-20 23:00N 49°18' W 058°24'319.6 360 / 181026.2 0.2-3.6
2017-Apr-20 22:50N 49°17' W 058°20'513.9
2017-Apr-20 22:30N 49°14' W 058°14'815.6
2017-Apr-20 22:00N 49°06' W 058°12'2428.2 280 / 141026.6 0.6-4.7
2017-Apr-20 21:59N 49°08' W 058°10'612.2
2017-Apr-20 21:30N 49°02' W 058°08'510.5
2017-Apr-20 21:00N 48°59' W 058°02'5291.4
2017-Apr-20 21:00N 48°54' W 058°00'4 8.4 280 / 171025.8 1.7-4.8
2017-Apr-20 20:30N 48°58' W 057°57'0 0.0
2017-Apr-20 20:00N 48°58' W 057°57'41285.1
2017-Apr-20 20:00N 48°54' W 057°54'4 7.9 220 / 171025.8 1.9-5.3
2017-Apr-20 19:30N 48°58' W 057°57'0 0.0
2017-Apr-20 19:00N 48°58' W 057°57'41570.6
2017-Apr-20 19:00N 48°54' W 057°54'4 7.9 220 / 171025.7 2.1-4.6
2017-Apr-20 18:30N 48°58' W 057°57'0 0.0
2017-Apr-20 18:00N 48°58' W 057°57'41413.6
2017-Apr-20 18:00N 48°54' W 057°54'4 7.9 250 / 61026.5 4.6-6.2
2017-Apr-20 17:30N 48°58' W 057°57'0 0.0
2017-Apr-20 17:00N 48°58' W 057°57'41413.6
2017-Apr-20 17:00N 48°54' W 057°54'4 7.9 330 / 51027.2 4.8-8.8
2017-Apr-20 16:30N 48°58' W 057°57'0 0.0
2017-Apr-20 16:00N 48°58' W 057°57'41414.2
2017-Apr-20 16:00N 48°54' W 057°54'4 7.9 360 / 51028.0 3.9-8.9
2017-Apr-20 15:30N 48°58' W 057°57'0 0.0
2017-Apr-20 15:00N 48°58' W 057°57'0 0.0
2017-Apr-20 14:30N 48°58' W 057°57'0 0.0
2017-Apr-20 13:30N 48°58' W 057°57'0 0.0
2017-Apr-20 13:00N 48°58' W 057°57'0 0.0
2017-Apr-20 12:30N 48°58' W 057°57'0 0.0
2017-Apr-20 12:00N 48°58' W 057°57'41571.3
2017-Apr-20 12:00N 48°54' W 057°54'4 7.9 010 / 41030.9 -2.9-8.6
2017-Apr-20 11:30N 48°58' W 057°57'0 0.0
2017-Apr-20 11:00N 48°58' W 057°57'41285.1
2017-Apr-20 11:00N 48°54' W 057°54'4 7.9 010 / 41031.4 -4.8-9.0
2017-Apr-20 10:30N 48°58' W 057°57'0 0.0
2017-Apr-20 10:00N 48°58' W 057°57'41413.6
2017-Apr-20 10:00N 48°54' W 057°54'4 8.2 1031.3 -5.1-9.3
2017-Apr-20 09:31N 48°58' W 057°57'5 9.0
2017-Apr-20 09:00N 48°59' W 058°03'5318.3
2017-Apr-20 09:00N 48°54' W 058°06'815.7 120 / 121030.2 -5.2-8.7
2017-Apr-20 08:30N 49°02' W 058°07'3 6.5
2017-Apr-20 08:00N 49°05' W 058°09'2169.1
2017-Apr-20 08:00N 49°06' W 058°12'6 6.0 150 / 121030.2 -3.3-8.5
2017-Apr-20 07:00N 49°12' W 058°12'1 7.5 120 / 101030.7 -3.0-7.5
2017-Apr-20 06:52N 49°11' W 058°11'2 5.4
2017-Apr-20 06:30N 49°13' W 058°12'4 7.8
2017-Apr-20 06:00N 49°12' W 058°18'7 7.2 120 / 121030.8 -1.7-7.4
2017-Apr-20 05:00N 49°18' W 058°24'0 4.2 150 / 121031.1 -0.7-6.4
2017-Apr-20 04:54N 49°18' W 058°24'6 6.3
2017-Apr-20 04:00N 49°24' W 058°24'6 6.0 180 / 91031.8 -0.2-5.5
2017-Apr-20 03:00N 49°30' W 058°24'7 7.2 160 / 21032.3 -0.6-5.7
2017-Apr-20 02:00N 49°36' W 058°18'6 6.0 070 / 81032.5 -1.5-5.7
2017-Apr-20 01:00N 49°42' W 058°18'7 7.1 080 / 81033.2 -1.7-6.6
2017-Apr-20 00:00N 49°48' W 058°12'7 7.1 040 / 41033.6 -2.0-6.8
2017-Apr-19 23:00N 49°54' W 058°06'7 7.1 320 / 31033.8 -1.9-6.8
2017-Apr-19 22:00N 50°00' W 058°00'1312.6 270 / 41034.0 -1.8-6.6
2017-Apr-19 21:00N 50°12' W 057°54'7 7.1 280 / 91034.4 -1.8-6.6
2017-Apr-19 20:00N 50°18' W 057°48'7 7.1 260 / 111034.8 -2.0-6.8
2017-Apr-19 19:00N 50°24' W 057°42'1312.6 260 / 131035.1 -2.2-6.1
2017-Apr-19 18:00N 50°36' W 057°36'7 7.1 240 / 141035.5 -2.5-6.0
2017-Apr-19 17:00N 50°42' W 057°30'1312.6 230 / 141036.1 -2.7-6.4
2017-Apr-19 16:00N 50°54' W 057°24'1414.2 220 / 141036.5 -3.0-7.0
2017-Apr-19 15:00N 51°06' W 057°12'1212.0 220 / 141037.3 -3.5-7.2
2017-Apr-19 14:00N 51°18' W 057°12'4 3.8 190 / 21038.2 -5.8-7.6
2017-Apr-19 13:00N 51°18' W 057°06'7 7.1 250 / 11038.7 -6.9-8.6
2017-Apr-19 12:00N 51°12' W 057°12'6 6.0 290 / 61038.9 -7.4-8.6
2017-Apr-19 11:00N 51°18' W 057°12'   020 / 31038.9 -9.9-10.8

Dump ship's entire track history